KCLK/CLK METAR and TAF weather

Enter ICAO airport designator
Station Type Date Time Source
KCLK METAR 2021/05/14 14:15 UTC NOAA

KCLK 141415Z AUTO 19011G17KT 10SM CLR 16/10 A3021 RMK AO2


Station Type Date Time Source
KCLK Decoded METAR 2021/05/14 14:15 UTC NOAA

Clinton, Clinton Regional Airport, OK, United States (KCLK) 35-32-17N 098-55-17W
May 14, 2021 - 10:15 AM EDT / 2021.05.14 1415 UTC
Wind: from the S (190 degrees) at 13 MPH (11 KT) gusting to 20 MPH (17 KT):0
Visibility: 10 mile(s):0
Sky conditions: clear
Temperature: 60 F (16 C)
Dew Point: 50 F (10 C)
Relative Humidity: 67%
Pressure (altimeter): 30.21 in. Hg (1023 hPa)
ob: KCLK 141415Z AUTO 19011G17KT 10SM CLR 16/10 A3021 RMK AO2
cycle: 14

Station Type Date Time Source
KCLK TAF UTC NOAA

Error!

Example: see airport list